首页
METAR-TAF:

METAR-TAF

机场 :

奥斯陆, 挪威

奥斯陆加勒穆恩机场

纬度: 60-12N, 经度: 011-05E, 海拔: 208米

当前天气观测

该预报发布于12分钟前的01:50 UTC
风速5节,风向北转西北
温度 1°C
湿度 69%
气压 998 hPa
能见度10公里或以上
1500米以下无云,无积雨云

METAR: ENGM 260150Z 34005KT CAVOK 01/M04 Q0998

时间: 04:02 (02:02 UTC)

预报

预报有效从26日的 00点(UTC)到 26日的 24点(UTC)
风速5节,风向多变
能见度10公里或以上
少量云层高于4000英尺
散云层高于7000英尺
成为
从 26日的 10点(UTC)到 26日的 12点(UTC)
风速10节,风向
几率 40%
从 26日的 14点(UTC)到 26日的 18点(UTC)
少量云层高于3000英尺, 积雨云.
成为
从 26日的 21点(UTC)到 26日的 24点(UTC)
多云层高于400英尺

TAF: ENGM 2600/2624 VRB05KT 9999 FEW040 SCT070 BECMG 2610/2612 19010KT PROB40 2614/2618 FEW030CB BECMG 2621/2624 BKN004

超过4000个机场的气象观测和天气预报(METAR&TAF报告)。

可查询的气象台以黄色和红色小点在地图上表示。

将鼠标移到小点上方,可查看气象台名称。

然后点击查看天气观测和预报。

如需切换地图:点击带黑十字的绿色按钮放大地图;点击带横线的绿色按钮缩小地图;或者点击绿色箭头查看邻近地区的地图。


METAR-TAF: